sensor_id;sensor_type;location;lat;lon;timestamp;pressure;altitude;pressure_sealevel;temperature;humidity
20023;BME280;10172;42.054;24.546;2023-07-13T00:00:29;98197.72;;;25.55;95.79
20023;BME280;10172;42.054;24.546;2023-07-13T00:02:57;98193.56;;;25.59;95.76
20023;BME280;10172;42.054;24.546;2023-07-13T00:05:23;98196.59;;;25.77;94.58
20023;BME280;10172;42.054;24.546;2023-07-13T00:07:49;98197.97;;;25.60;94.99
20023;BME280;10172;42.054;24.546;2023-07-13T00:10:15;98194.75;;;25.91;91.65
20023;BME280;10172;42.054;24.546;2023-07-13T00:12:41;98190.72;;;25.46;95.47
20023;BME280;10172;42.054;24.546;2023-07-13T00:15:13;98190.44;;;25.34;96.75
20023;BME280;10172;42.054;24.546;2023-07-13T00:17:39;98185.09;;;25.20;98.45
20023;BME280;10172;42.054;24.546;2023-07-13T00:20:05;98182.94;;;25.71;93.63
20023;BME280;10172;42.054;24.546;2023-07-13T00:22:32;98178.94;;;24.83;100.00
20023;BME280;10172;42.054;24.546;2023-07-13T00:24:57;98177.03;;;25.05;99.57
20023;BME280;10172;42.054;24.546;2023-07-13T00:27:23;98174.50;;;25.31;97.70
20023;BME280;10172;42.054;24.546;2023-07-13T00:29:49;98169.25;;;25.30;97.28
20023;BME280;10172;42.054;24.546;2023-07-13T00:32:14;98171.00;;;25.10;99.15
20023;BME280;10172;42.054;24.546;2023-07-13T00:34:40;98159.31;;;25.16;98.00
20023;BME280;10172;42.054;24.546;2023-07-13T00:37:07;98169.19;;;25.17;98.57
20023;BME280;10172;42.054;24.546;2023-07-13T00:39:34;98174.88;;;25.56;94.82
20023;BME280;10172;42.054;24.546;2023-07-13T00:42:01;98168.50;;;25.77;92.61
20023;BME280;10172;42.054;24.546;2023-07-13T00:44:27;98169.72;;;25.68;92.83
20023;BME280;10172;42.054;24.546;2023-07-13T00:46:52;98167.56;;;25.29;95.50
20023;BME280;10172;42.054;24.546;2023-07-13T00:49:22;98163.38;;;25.54;94.00
20023;BME280;10172;42.054;24.546;2023-07-13T00:52:04;98169.50;;;25.69;93.12
20023;BME280;10172;42.054;24.546;2023-07-13T00:54:37;98167.88;;;25.13;97.43
20023;BME280;10172;42.054;24.546;2023-07-13T00:57:07;98162.34;;;24.78;100.00
20023;BME280;10172;42.054;24.546;2023-07-13T00:59:35;98165.13;;;24.64;100.00
20023;BME280;10172;42.054;24.546;2023-07-13T01:02:02;98155.28;;;25.12;98.69
20023;BME280;10172;42.054;24.546;2023-07-13T01:04:27;98162.66;;;24.90;99.58
20023;BME280;10172;42.054;24.546;2023-07-13T01:06:53;98155.97;;;25.14;97.83
20023;BME280;10172;42.054;24.546;2023-07-13T01:09:19;98153.78;;;25.03;98.46
20023;BME280;10172;42.054;24.546;2023-07-13T01:11:46;98154.75;;;25.50;95.29
20023;BME280;10172;42.054;24.546;2023-07-13T01:14:12;98153.53;;;24.98;100.00
20023;BME280;10172;42.054;24.546;2023-07-13T01:16:39;98143.13;;;24.80;100.00
20023;BME280;10172;42.054;24.546;2023-07-13T01:19:25;98138.50;;;25.36;96.77
20023;BME280;10172;42.054;24.546;2023-07-13T01:21:55;98143.56;;;26.34;89.13
20023;BME280;10172;42.054;24.546;2023-07-13T01:24:20;98141.31;;;25.90;90.58
20023;BME280;10172;42.054;24.546;2023-07-13T01:26:46;98143.78;;;25.10;95.14
20023;BME280;10172;42.054;24.546;2023-07-13T01:29:11;98140.97;;;25.31;94.46
20023;BME280;10172;42.054;24.546;2023-07-13T01:31:37;98136.84;;;24.79;96.94
20023;BME280;10172;42.054;24.546;2023-07-13T01:34:02;98136.13;;;24.92;97.40
20023;BME280;10172;42.054;24.546;2023-07-13T01:36:28;98139.56;;;25.07;96.42
20023;BME280;10172;42.054;24.546;2023-07-13T01:38:54;98141.25;;;25.70;91.45
20023;BME280;10172;42.054;24.546;2023-07-13T01:41:19;98139.94;;;25.60;91.78
20023;BME280;10172;42.054;24.546;2023-07-13T01:43:45;98133.88;;;25.30;94.26
20023;BME280;10172;42.054;24.546;2023-07-13T01:46:10;98136.34;;;25.25;94.48
20023;BME280;10172;42.054;24.546;2023-07-13T01:48:35;98137.97;;;25.94;89.71
20023;BME280;10172;42.054;24.546;2023-07-13T01:51:01;98146.03;;;26.16;88.14
20023;BME280;10172;42.054;24.546;2023-07-13T01:53:26;98139.16;;;25.72;90.69
20023;BME280;10172;42.054;24.546;2023-07-13T01:55:52;98143.78;;;25.78;89.59
20023;BME280;10172;42.054;24.546;2023-07-13T01:58:17;98143.78;;;25.85;89.82
20023;BME280;10172;42.054;24.546;2023-07-13T02:00:43;98149.66;;;26.29;86.30
20023;BME280;10172;42.054;24.546;2023-07-13T02:03:08;98159.03;;;26.13;87.00
20023;BME280;10172;42.054;24.546;2023-07-13T02:05:34;98167.47;;;26.32;86.10
20023;BME280;10172;42.054;24.546;2023-07-13T02:08:00;98166.06;;;26.62;85.27
20023;BME280;10172;42.054;24.546;2023-07-13T02:10:25;98172.84;;;26.86;83.08
20023;BME280;10172;42.054;24.546;2023-07-13T02:12:51;98172.22;;;27.03;82.66
20023;BME280;10172;42.054;24.546;2023-07-13T02:15:17;98182.72;;;26.87;83.63
20023;BME280;10172;42.054;24.546;2023-07-13T02:17:42;98176.78;;;26.77;83.73
20023;BME280;10172;42.054;24.546;2023-07-13T02:20:08;98180.22;;;25.09;95.91
20023;BME280;10172;42.054;24.546;2023-07-13T02:22:34;98183.91;;;25.29;94.66
20023;BME280;10172;42.054;24.546;2023-07-13T02:25:00;98187.09;;;25.39;94.07
20023;BME280;10172;42.054;24.546;2023-07-13T02:27:26;98184.31;;;25.53;93.23
20023;BME280;10172;42.054;24.546;2023-07-13T02:29:52;98185.53;;;24.95;98.48
20023;BME280;10172;42.054;24.546;2023-07-13T02:32:17;98192.25;;;24.78;100.00
20023;BME280;10172;42.054;24.546;2023-07-13T02:34:43;98184.34;;;25.05;99.05
20023;BME280;10172;42.054;24.546;2023-07-13T02:37:08;98185.78;;;24.37;100.00
20023;BME280;10172;42.054;24.546;2023-07-13T02:39:34;98190.56;;;24.77;99.81
20023;BME280;10172;42.054;24.546;2023-07-13T02:41:59;98186.16;;;25.19;96.67
20023;BME280;10172;42.054;24.546;2023-07-13T02:44:25;98185.50;;;25.17;97.07
20023;BME280;10172;42.054;24.546;2023-07-13T02:46:51;98173.06;;;25.35;95.14
20023;BME280;10172;42.054;24.546;2023-07-13T02:49:16;98183.97;;;25.08;97.30
20023;BME280;10172;42.054;24.546;2023-07-13T02:51:42;98176.91;;;25.20;95.54
20023;BME280;10172;42.054;24.546;2023-07-13T02:54:08;98189.09;;;25.24;95.09
20023;BME280;10172;42.054;24.546;2023-07-13T02:56:34;98188.97;;;25.60;93.02
20023;BME280;10172;42.054;24.546;2023-07-13T02:59:00;98184.31;;;25.94;91.47
20023;BME280;10172;42.054;24.546;2023-07-13T03:01:25;98202.41;;;26.08;92.13
20023;BME280;10172;42.054;24.546;2023-07-13T03:03:51;98199.16;;;26.33;90.37
20023;BME280;10172;42.054;24.546;2023-07-13T03:06:17;98197.06;;;26.35;89.81
20023;BME280;10172;42.054;24.546;2023-07-13T03:08:43;98202.53;;;25.94;93.77
20023;BME280;10172;42.054;24.546;2023-07-13T03:11:12;98200.25;;;25.29;96.00
20023;BME280;10172;42.054;24.546;2023-07-13T03:13:39;98198.25;;;24.88;100.00
20023;BME280;10172;42.054;24.546;2023-07-13T03:16:06;98209.53;;;25.13;100.00
20023;BME280;10172;42.054;24.546;2023-07-13T03:18:32;98204.41;;;25.52;98.96
20023;BME280;10172;42.054;24.546;2023-07-13T03:20:58;98212.94;;;25.77;97.74
20023;BME280;10172;42.054;24.546;2023-07-13T03:23:24;98207.22;;;25.10;100.00
20023;BME280;10172;42.054;24.546;2023-07-13T03:25:50;98199.91;;;25.11;100.00
20023;BME280;10172;42.054;24.546;2023-07-13T03:28:15;98190.44;;;25.62;100.00
20023;BME280;10172;42.054;24.546;2023-07-13T03:30:41;98201.00;;;25.78;98.94
20023;BME280;10172;42.054;24.546;2023-07-13T03:33:07;98192.06;;;25.29;100.00
20023;BME280;10172;42.054;24.546;2023-07-13T03:35:34;98185.06;;;24.50;100.00
20023;BME280;10172;42.054;24.546;2023-07-13T03:37:59;98194.03;;;24.86;100.00
20023;BME280;10172;42.054;24.546;2023-07-13T03:40:27;98185.66;;;24.87;100.00
20023;BME280;10172;42.054;24.546;2023-07-13T03:42:53;98191.31;;;25.69;99.41
20023;BME280;10172;42.054;24.546;2023-07-13T03:45:19;98180.22;;;26.18;92.39
20023;BME280;10172;42.054;24.546;2023-07-13T03:47:44;98187.47;;;26.04;96.02
20023;BME280;10172;42.054;24.546;2023-07-13T03:50:10;98191.09;;;25.09;100.00
20023;BME280;10172;42.054;24.546;2023-07-13T03:52:36;98186.47;;;24.81;100.00
20023;BME280;10172;42.054;24.546;2023-07-13T03:55:01;98192.72;;;24.39;100.00
20023;BME280;10172;42.054;24.546;2023-07-13T03:57:27;98188.16;;;25.10;100.00
20023;BME280;10172;42.054;24.546;2023-07-13T03:59:52;98187.88;;;25.26;100.00
20023;BME280;10172;42.054;24.546;2023-07-13T04:02:18;98187.72;;;25.07;100.00
20023;BME280;10172;42.054;24.546;2023-07-13T04:04:43;98189.94;;;24.75;100.00
20023;BME280;10172;42.054;24.546;2023-07-13T04:07:09;98186.97;;;25.47;100.00
20023;BME280;10172;42.054;24.546;2023-07-13T04:09:35;98196.13;;;25.74;99.44
20023;BME280;10172;42.054;24.546;2023-07-13T04:12:00;98199.59;;;25.89;100.00
20023;BME280;10172;42.054;24.546;2023-07-13T04:14:26;98195.09;;;25.68;100.00
20023;BME280;10172;42.054;24.546;2023-07-13T04:16:51;98185.34;;;25.93;100.00
20023;BME280;10172;42.054;24.546;2023-07-13T04:19:20;98187.97;;;26.14;99.60
20023;BME280;10172;42.054;24.546;2023-07-13T04:21:45;98178.00;;;26.48;98.74
20023;BME280;10172;42.054;24.546;2023-07-13T04:24:11;98188.94;;;26.67;97.66
20023;BME280;10172;42.054;24.546;2023-07-13T04:26:37;98192.78;;;26.86;97.40
20023;BME280;10172;42.054;24.546;2023-07-13T04:29:04;98197.22;;;27.00;96.64
20023;BME280;10172;42.054;24.546;2023-07-13T04:31:31;98196.97;;;27.21;93.54
20023;BME280;10172;42.054;24.546;2023-07-13T04:33:56;98200.34;;;27.04;94.67
20023;BME280;10172;42.054;24.546;2023-07-13T04:36:22;98202.44;;;27.15;94.64
20023;BME280;10172;42.054;24.546;2023-07-13T04:38:47;98201.19;;;26.91;96.05
20023;BME280;10172;42.054;24.546;2023-07-13T04:41:15;98201.16;;;27.17;95.74
20023;BME280;10172;42.054;24.546;2023-07-13T04:43:40;98202.25;;;27.43;95.18
20023;BME280;10172;42.054;24.546;2023-07-13T04:46:16;98199.91;;;27.53;95.75
20023;BME280;10172;42.054;24.546;2023-07-13T04:48:45;98203.06;;;27.30;98.45
20023;BME280;10172;42.054;24.546;2023-07-13T04:51:10;98205.38;;;27.26;98.02
20023;BME280;10172;42.054;24.546;2023-07-13T04:53:36;98207.06;;;27.14;99.36
20023;BME280;10172;42.054;24.546;2023-07-13T04:56:03;98209.59;;;27.49;97.03
20023;BME280;10172;42.054;24.546;2023-07-13T04:58:29;98215.25;;;27.27;97.79
20023;BME280;10172;42.054;24.546;2023-07-13T05:01:03;98214.59;;;27.39;97.25
20023;BME280;10172;42.054;24.546;2023-07-13T05:03:30;98216.28;;;27.07;99.39
20023;BME280;10172;42.054;24.546;2023-07-13T05:06:01;98217.56;;;27.17;98.10
20023;BME280;10172;42.054;24.546;2023-07-13T05:08:26;98216.66;;;26.64;100.00
20023;BME280;10172;42.054;24.546;2023-07-13T05:10:52;98217.31;;;26.80;100.00
20023;BME280;10172;42.054;24.546;2023-07-13T05:13:18;98227.84;;;27.35;99.03
20023;BME280;10172;42.054;24.546;2023-07-13T05:15:44;98215.47;;;27.26;99.82
20023;BME280;10172;42.054;24.546;2023-07-13T05:18:09;98216.72;;;27.37;98.39
20023;BME280;10172;42.054;24.546;2023-07-13T05:20:35;98223.47;;;27.41;98.61
20023;BME280;10172;42.054;24.546;2023-07-13T05:23:00;98217.56;;;27.57;97.03
20023;BME280;10172;42.054;24.546;2023-07-13T05:25:26;98229.09;;;27.39;97.23
20023;BME280;10172;42.054;24.546;2023-07-13T05:27:52;98225.88;;;27.95;93.46
20023;BME280;10172;42.054;24.546;2023-07-13T05:30:17;98229.84;;;27.99;93.62
20023;BME280;10172;42.054;24.546;2023-07-13T05:32:43;98223.22;;;27.09;98.26
20023;BME280;10172;42.054;24.546;2023-07-13T05:35:08;98227.03;;;27.48;96.51
20023;BME280;10172;42.054;24.546;2023-07-13T05:37:34;98233.69;;;27.84;93.78
20023;BME280;10172;42.054;24.546;2023-07-13T05:39:59;98228.66;;;27.75;93.83
20023;BME280;10172;42.054;24.546;2023-07-13T05:42:25;98229.19;;;28.16;92.60
20023;BME280;10172;42.054;24.546;2023-07-13T05:44:50;98226.69;;;28.08;92.29
20023;BME280;10172;42.054;24.546;2023-07-13T05:47:16;98237.53;;;28.34;89.99
20023;BME280;10172;42.054;24.546;2023-07-13T05:49:41;98234.78;;;28.79;86.96
20023;BME280;10172;42.054;24.546;2023-07-13T05:52:07;98243.97;;;28.91;86.56
20023;BME280;10172;42.054;24.546;2023-07-13T05:54:32;98237.69;;;29.15;85.39
20023;BME280;10172;42.054;24.546;2023-07-13T05:56:58;98238.69;;;29.27;84.94
20023;BME280;10172;42.054;24.546;2023-07-13T05:59:23;98234.81;;;29.35;84.21
20023;BME280;10172;42.054;24.546;2023-07-13T06:01:49;98237.22;;;29.49;82.09
20023;BME280;10172;42.054;24.546;2023-07-13T06:04:17;98236.94;;;29.76;81.13
20023;BME280;10172;42.054;24.546;2023-07-13T06:06:43;98239.91;;;29.74;81.47
20023;BME280;10172;42.054;24.546;2023-07-13T06:09:08;98235.63;;;29.60;82.22
20023;BME280;10172;42.054;24.546;2023-07-13T06:11:34;98237.38;;;30.15;80.46
20023;BME280;10172;42.054;24.546;2023-07-13T06:14:00;98230.75;;;30.41;77.91
20023;BME280;10172;42.054;24.546;2023-07-13T06:16:25;98244.66;;;30.58;76.87
20023;BME280;10172;42.054;24.546;2023-07-13T06:18:51;98244.66;;;30.88;75.59
20023;BME280;10172;42.054;24.546;2023-07-13T06:21:19;98244.16;;;30.79;75.73
20023;BME280;10172;42.054;24.546;2023-07-13T06:23:46;98233.34;;;30.36;77.46
20023;BME280;10172;42.054;24.546;2023-07-13T06:26:13;98236.16;;;30.77;75.04
20023;BME280;10172;42.054;24.546;2023-07-13T06:28:38;98233.28;;;30.72;75.16
20023;BME280;10172;42.054;24.546;2023-07-13T06:31:09;98229.81;;;30.95;74.68
20023;BME280;10172;42.054;24.546;2023-07-13T06:33:35;98233.97;;;31.62;69.75
20023;BME280;10172;42.054;24.546;2023-07-13T06:36:03;98236.16;;;31.60;68.97
20023;BME280;10172;42.054;24.546;2023-07-13T06:38:29;98238.41;;;31.75;67.01
20023;BME280;10172;42.054;24.546;2023-07-13T06:40:54;98232.28;;;31.38;68.03
20023;BME280;10172;42.054;24.546;2023-07-13T06:43:20;98224.53;;;31.58;68.16
20023;BME280;10172;42.054;24.546;2023-07-13T06:45:46;98224.09;;;31.20;68.65
20023;BME280;10172;42.054;24.546;2023-07-13T06:48:17;98228.50;;;31.62;66.96
20023;BME280;10172;42.054;24.546;2023-07-13T06:50:43;98232.41;;;31.66;66.21
20023;BME280;10172;42.054;24.546;2023-07-13T06:53:10;98229.72;;;32.29;61.73
20023;BME280;10172;42.054;24.546;2023-07-13T06:55:35;98228.69;;;32.19;63.42
20023;BME280;10172;42.054;24.546;2023-07-13T06:58:01;98226.69;;;32.54;63.17
20023;BME280;10172;42.054;24.546;2023-07-13T07:00:26;98238.09;;;32.74;60.00
20023;BME280;10172;42.054;24.546;2023-07-13T07:02:52;98232.53;;;33.14;57.06
20023;BME280;10172;42.054;24.546;2023-07-13T07:05:17;98235.06;;;33.32;56.08
20023;BME280;10172;42.054;24.546;2023-07-13T07:07:51;98239.16;;;33.30;56.71
20023;BME280;10172;42.054;24.546;2023-07-13T07:10:17;98246.75;;;33.89;54.45
20023;BME280;10172;42.054;24.546;2023-07-13T07:12:43;98240.41;;;33.72;54.03
20023;BME280;10172;42.054;24.546;2023-07-13T07:15:09;98234.41;;;34.13;54.89
20023;BME280;10172;42.054;24.546;2023-07-13T07:17:35;98228.69;;;33.32;56.18
20023;BME280;10172;42.054;24.546;2023-07-13T07:20:00;98226.84;;;33.54;56.05
20023;BME280;10172;42.054;24.546;2023-07-13T07:22:26;98233.22;;;33.71;55.75
20023;BME280;10172;42.054;24.546;2023-07-13T07:24:56;98240.19;;;34.12;53.09
20023;BME280;10172;42.054;24.546;2023-07-13T07:27:22;98229.91;;;34.29;52.71
20023;BME280;10172;42.054;24.546;2023-07-13T07:29:47;98235.56;;;33.79;53.29
20023;BME280;10172;42.054;24.546;2023-07-13T07:32:13;98234.16;;;34.15;53.75
20023;BME280;10172;42.054;24.546;2023-07-13T07:34:38;98223.25;;;34.47;51.60
20023;BME280;10172;42.054;24.546;2023-07-13T07:37:04;98233.19;;;34.48;51.38
20023;BME280;10172;42.054;24.546;2023-07-13T07:39:30;98228.75;;;34.03;52.09
20023;BME280;10172;42.054;24.546;2023-07-13T07:41:55;98227.44;;;34.49;51.52
20023;BME280;10172;42.054;24.546;2023-07-13T07:44:21;98229.06;;;34.72;50.10
20023;BME280;10172;42.054;24.546;2023-07-13T07:46:47;98227.53;;;34.81;48.72
20023;BME280;10172;42.054;24.546;2023-07-13T07:49:12;98226.50;;;34.87;48.65
20023;BME280;10172;42.054;24.546;2023-07-13T07:51:38;98223.59;;;35.25;47.40
20023;BME280;10172;42.054;24.546;2023-07-13T07:54:05;98231.44;;;34.85;49.51
20023;BME280;10172;42.054;24.546;2023-07-13T07:56:31;98225.53;;;35.30;47.17
20023;BME280;10172;42.054;24.546;2023-07-13T07:58:57;98226.19;;;35.42;47.44
20023;BME280;10172;42.054;24.546;2023-07-13T08:01:22;98219.78;;;35.36;46.96
20023;BME280;10172;42.054;24.546;2023-07-13T08:03:48;98228.72;;;35.12;47.52
20023;BME280;10172;42.054;24.546;2023-07-13T08:06:14;98226.47;;;34.17;49.53
20023;BME280;10172;42.054;24.546;2023-07-13T08:08:40;98218.06;;;33.90;51.99
20023;BME280;10172;42.054;24.546;2023-07-13T08:11:07;98215.00;;;35.00;47.63
20023;BME280;10172;42.054;24.546;2023-07-13T08:13:33;98204.66;;;35.81;45.00
20023;BME280;10172;42.054;24.546;2023-07-13T08:15:59;98205.94;;;36.05;44.86
20023;BME280;10172;42.054;24.546;2023-07-13T08:18:25;98187.09;;;35.60;45.58
20023;BME280;10172;42.054;24.546;2023-07-13T08:20:50;98202.66;;;36.13;44.58
20023;BME280;10172;42.054;24.546;2023-07-13T08:23:17;98200.06;;;36.53;43.80
20023;BME280;10172;42.054;24.546;2023-07-13T08:25:42;98196.88;;;36.97;42.53
20023;BME280;10172;42.054;24.546;2023-07-13T08:28:08;98189.91;;;36.89;41.94
20023;BME280;10172;42.054;24.546;2023-07-13T08:30:34;98193.63;;;35.91;44.31
20023;BME280;10172;42.054;24.546;2023-07-13T08:32:59;98193.56;;;35.76;45.16
20023;BME280;10172;42.054;24.546;2023-07-13T08:35:25;98195.19;;;35.77;45.66
20023;BME280;10172;42.054;24.546;2023-07-13T08:37:51;98192.34;;;36.61;44.07
20023;BME280;10172;42.054;24.546;2023-07-13T08:40:19;98190.50;;;36.24;43.41
20023;BME280;10172;42.054;24.546;2023-07-13T08:42:54;98190.16;;;36.83;43.09
20023;BME280;10172;42.054;24.546;2023-07-13T08:45:33;98182.50;;;36.23;42.89
20023;BME280;10172;42.054;24.546;2023-07-13T08:48:08;98185.19;;;36.95;41.36
20023;BME280;10172;42.054;24.546;2023-07-13T08:50:54;98172.38;;;36.58;40.88
20023;BME280;10172;42.054;24.546;2023-07-13T08:53:23;98185.50;;;37.13;40.78
20023;BME280;10172;42.054;24.546;2023-07-13T08:55:58;98174.13;;;37.65;39.03
20023;BME280;10172;42.054;24.546;2023-07-13T08:58:25;98176.88;;;37.76;38.97
20023;BME280;10172;42.054;24.546;2023-07-13T09:04:19;98180.66;;;38.25;35.56
20023;BME280;10172;42.054;24.546;2023-07-13T09:14:53;98164.13;;;39.03;34.41
20023;BME280;10172;42.054;24.546;2023-07-13T09:17:48;98156.03;;;39.40;34.13
20023;BME280;10172;42.054;24.546;2023-07-13T09:20:55;98154.81;;;39.22;34.19
20023;BME280;10172;42.054;24.546;2023-07-13T09:23:21;98150.25;;;37.80;38.09
20023;BME280;10172;42.054;24.546;2023-07-13T09:25:49;98153.03;;;38.54;36.80
20023;BME280;10172;42.054;24.546;2023-07-13T09:28:28;98147.31;;;39.23;35.57
20023;BME280;10172;42.054;24.546;2023-07-13T09:33:31;98140.91;;;38.35;33.55
20023;BME280;10172;42.054;24.546;2023-07-13T09:35:57;98140.22;;;37.89;33.58
20023;BME280;10172;42.054;24.546;2023-07-13T09:38:25;98136.56;;;38.08;34.53
20023;BME280;10172;42.054;24.546;2023-07-13T09:43:26;98130.59;;;37.46;35.20
20023;BME280;10172;42.054;24.546;2023-07-13T09:45:54;98119.53;;;38.25;33.27
20023;BME280;10172;42.054;24.546;2023-07-13T09:48:20;98105.13;;;39.06;32.26
20023;BME280;10172;42.054;24.546;2023-07-13T09:50:45;98112.63;;;38.71;33.57
20023;BME280;10172;42.054;24.546;2023-07-13T09:53:16;98105.06;;;38.38;32.58
20023;BME280;10172;42.054;24.546;2023-07-13T09:55:44;98103.19;;;38.18;33.59
20023;BME280;10172;42.054;24.546;2023-07-13T09:58:16;98102.31;;;38.28;33.38
20023;BME280;10172;42.054;24.546;2023-07-13T10:00:57;98090.69;;;39.04;33.48
20023;BME280;10172;42.054;24.546;2023-07-13T10:03:29;98088.88;;;39.75;32.37
20023;BME280;10172;42.054;24.546;2023-07-13T10:06:22;98084.66;;;40.44;31.77
20023;BME280;10172;42.054;24.546;2023-07-13T10:08:49;98073.50;;;40.81;29.77
20023;BME280;10172;42.054;24.546;2023-07-13T10:11:20;98076.88;;;39.51;25.72
20023;BME280;10172;42.054;24.546;2023-07-13T10:16:16;98066.72;;;40.31;27.42
20023;BME280;10172;42.054;24.546;2023-07-13T10:18:46;98070.28;;;39.94;28.22
20023;BME280;10172;42.054;24.546;2023-07-13T10:21:19;98062.31;;;40.49;27.01
20023;BME280;10172;42.054;24.546;2023-07-13T10:23:55;98072.25;;;40.74;26.53
20023;BME280;10172;42.054;24.546;2023-07-13T10:26:33;98061.56;;;41.13;26.40
20023;BME280;10172;42.054;24.546;2023-07-13T10:29:07;98070.31;;;41.39;25.96
20023;BME280;10172;42.054;24.546;2023-07-13T10:31:36;98065.38;;;38.66;28.21
20023;BME280;10172;42.054;24.546;2023-07-13T10:34:03;98074.09;;;39.51;28.34
20023;BME280;10172;42.054;24.546;2023-07-13T10:36:41;98062.13;;;39.51;28.33
20023;BME280;10172;42.054;24.546;2023-07-13T10:39:13;98056.66;;;40.54;28.05
20023;BME280;10172;42.054;24.546;2023-07-13T10:41:41;98055.78;;;41.23;27.32
20023;BME280;10172;42.054;24.546;2023-07-13T10:44:18;98055.06;;;41.17;27.20
20023;BME280;10172;42.054;24.546;2023-07-13T10:46:45;98044.03;;;40.94;27.46
20023;BME280;10172;42.054;24.546;2023-07-13T10:49:11;98048.69;;;40.66;28.42
20023;BME280;10172;42.054;24.546;2023-07-13T10:51:37;98037.47;;;41.03;28.30
20023;BME280;10172;42.054;24.546;2023-07-13T10:56:35;98056.31;;;41.98;26.89
20023;BME280;10172;42.054;24.546;2023-07-13T10:59:09;98049.88;;;41.84;26.71
20023;BME280;10172;42.054;24.546;2023-07-13T11:04:29;98043.78;;;41.82;26.80
20023;BME280;10172;42.054;24.546;2023-07-13T11:07:11;98036.72;;;42.25;25.40
20023;BME280;10172;42.054;24.546;2023-07-13T11:09:42;98029.84;;;42.31;26.23
20023;BME280;10172;42.054;24.546;2023-07-13T11:22:46;98034.06;;;41.80;26.12
20023;BME280;10172;42.054;24.546;2023-07-13T11:25:30;98017.81;;;42.45;26.37
20023;BME280;10172;42.054;24.546;2023-07-13T11:30:39;98026.81;;;41.92;25.34
20023;BME280;10172;42.054;24.546;2023-07-13T11:33:22;98015.50;;;42.11;24.73
20023;BME280;10172;42.054;24.546;2023-07-13T11:36:04;98007.75;;;41.94;23.97
20023;BME280;10172;42.054;24.546;2023-07-13T11:38:38;98007.94;;;41.30;24.64
20023;BME280;10172;42.054;24.546;2023-07-13T11:43:41;98005.94;;;42.61;23.43
20023;BME280;10172;42.054;24.546;2023-07-13T11:46:20;98003.69;;;43.16;23.93
20023;BME280;10172;42.054;24.546;2023-07-13T11:48:47;98005.31;;;43.39;22.60
20023;BME280;10172;42.054;24.546;2023-07-13T11:51:29;98004.97;;;42.88;22.92
20023;BME280;10172;42.054;24.546;2023-07-13T11:54:02;97999.03;;;40.49;24.94
20023;BME280;10172;42.054;24.546;2023-07-13T11:56:28;98008.47;;;42.00;24.73
20023;BME280;10172;42.054;24.546;2023-07-13T11:58:56;98007.25;;;41.65;23.71
20023;BME280;10172;42.054;24.546;2023-07-13T12:01:31;97996.22;;;42.37;24.18
20023;BME280;10172;42.054;24.546;2023-07-13T12:04:02;97987.34;;;42.57;23.61
20023;BME280;10172;42.054;24.546;2023-07-13T12:06:29;97985.44;;;42.66;24.28
20023;BME280;10172;42.054;24.546;2023-07-13T12:08:59;97979.06;;;42.74;24.06
20023;BME280;10172;42.054;24.546;2023-07-13T12:11:26;97977.34;;;42.64;23.25
20023;BME280;10172;42.054;24.546;2023-07-13T12:13:52;97975.41;;;42.51;23.03
20023;BME280;10172;42.054;24.546;2023-07-13T12:16:32;97971.31;;;42.71;23.93
20023;BME280;10172;42.054;24.546;2023-07-13T12:18:59;97971.53;;;43.05;22.71
20023;BME280;10172;42.054;24.546;2023-07-13T12:21:38;97972.06;;;40.77;23.72
20023;BME280;10172;42.054;24.546;2023-07-13T12:24:04;97957.09;;;41.19;24.37
20023;BME280;10172;42.054;24.546;2023-07-13T12:26:31;97957.72;;;41.70;23.91
20023;BME280;10172;42.054;24.546;2023-07-13T12:29:00;97950.84;;;42.62;23.39
20023;BME280;10172;42.054;24.546;2023-07-13T12:34:01;97953.00;;;42.87;22.88
20023;BME280;10172;42.054;24.546;2023-07-13T12:36:31;97949.75;;;43.24;22.80
20023;BME280;10172;42.054;24.546;2023-07-13T12:39:01;97950.22;;;43.57;21.62
20023;BME280;10172;42.054;24.546;2023-07-13T12:41:30;97941.78;;;43.49;21.78
20023;BME280;10172;42.054;24.546;2023-07-13T12:43:55;97934.25;;;43.27;22.01
20023;BME280;10172;42.054;24.546;2023-07-13T12:46:24;97937.00;;;43.49;22.38
20023;BME280;10172;42.054;24.546;2023-07-13T12:48:54;97937.31;;;43.08;21.65
20023;BME280;10172;42.054;24.546;2023-07-13T12:51:26;97928.72;;;42.52;22.25
20023;BME280;10172;42.054;24.546;2023-07-13T12:54:10;97922.63;;;42.27;22.34
20023;BME280;10172;42.054;24.546;2023-07-13T12:56:38;97924.78;;;42.30;23.12
20023;BME280;10172;42.054;24.546;2023-07-13T12:59:04;97931.03;;;41.24;23.45
20023;BME280;10172;42.054;24.546;2023-07-13T13:01:34;97927.31;;;41.69;22.79
20023;BME280;10172;42.054;24.546;2023-07-13T13:04:02;97921.66;;;41.96;22.79
20023;BME280;10172;42.054;24.546;2023-07-13T13:06:34;97919.06;;;42.36;23.08
20023;BME280;10172;42.054;24.546;2023-07-13T13:09:01;97914.59;;;43.01;22.75
20023;BME280;10172;42.054;24.546;2023-07-13T13:11:28;97912.94;;;43.48;22.58
20023;BME280;10172;42.054;24.546;2023-07-13T13:13:55;97914.91;;;43.47;21.72
20023;BME280;10172;42.054;24.546;2023-07-13T13:16:30;97918.78;;;42.90;21.96
20023;BME280;10172;42.054;24.546;2023-07-13T13:19:24;97917.59;;;43.13;22.00
20023;BME280;10172;42.054;24.546;2023-07-13T13:21:50;97916.50;;;43.31;21.53
20023;BME280;10172;42.054;24.546;2023-07-13T13:24:20;97923.91;;;42.66;21.02
20023;BME280;10172;42.054;24.546;2023-07-13T13:26:47;97910.97;;;41.76;22.48
20023;BME280;10172;42.054;24.546;2023-07-13T13:29:15;97902.31;;;42.58;22.68
20023;BME280;10172;42.054;24.546;2023-07-13T13:31:42;97898.09;;;42.47;22.17
20023;BME280;10172;42.054;24.546;2023-07-13T13:34:10;97903.25;;;41.46;22.10
20023;BME280;10172;42.054;24.546;2023-07-13T13:36:35;97895.13;;;42.65;22.35